Parq del Sol, Puerto Rico
Current Conditions -  °F | °C
As of 7:56 PM on Friday 24 Oct 2014 (Local Time) from TJSJ Reporting Station
Clear Clear  
Wind Chill: 85°   Ceiling: Unl
Heat Index: 93°   Visibility: 10mi
Dew Point: 75°   Wind: 3mph
Humidity: 72%   Direction: 130°SE
Pressure: 29.9"   Gusts: NA
Location:  18.0086°N, 66.0144°W
Report Text: TJSJ 242356Z 13003KT 10SM CLR 29/24 A2990 RMK AO2 SLP122 T02940239 10333 20289 53010
Loading
Personal Weather Stations






























Interactive Weather Map
Tropical Storm Tracking
New forecast layout! Learn more

10-Day Weather Forecast

Advertisements
Track Severe Weather on mobile